Time,TemperatureF,DewpointF,PressureIn,WindDirection,WindDirectionDegrees,WindSpeedMPH,WindSpeedGustMPH,Humidity,HourlyPrecipIn,Conditions,Clouds,dailyrainin,SoftwareType,DateUTC
2013-06-01 00:01:00,75.6,31.7,29.56,North,3,5.4,7.2,20,0.00,,---,0.00,VWS V13.01,2013-06-01 04:01:00,
2013-06-01 00:02:00,75.6,31.7,29.56,North,3,5.4,7.2,20,0.00,,---,0.00,VWS V13.01,2013-06-01 04:02:00,
2013-06-01 00:04:00,75.4,31.6,29.56,North,357,9.4,12.5,20,0.00,,---,0.00,VWS V13.01,2013-06-01 04:04:00,
2013-06-01 00:07:00,75.4,31.6,29.56,North,353,6.0,8.1,20,0.00,,---,0.00,VWS V13.01,2013-06-01 04:07:00,
2013-06-01 00:08:00,75.2,31.4,29.56,NNW,344,4.7,6.3,20,0.00,,---,0.00,VWS V13.01,2013-06-01 04:08:00,
2013-06-01 00:13:00,75.4,31.6,29.56,NNW,331,8.7,11.6,20,0.00,,---,0.00,VWS V13.01,2013-06-01 04:13:00,
2013-06-01 00:19:00,75.4,31.6,29.56,NNW,336,8.7,11.6,20,0.00,,---,0.00,VWS V13.01,2013-06-01 04:19:00,
2013-06-01 00:24:00,75.2,31.4,29.56,North,7,11.4,15.2,20,0.00,,---,0.00,VWS V13.01,2013-06-01 04:24:00,
2013-06-01 00:29:00,75.0,32.5,29.56,North,357,8.7,11.6,21,0.00,,---,0.00,VWS V13.01,2013-06-01 04:29:00,
2013-06-01 00:34:00,75.0,32.5,29.56,North,357,8.7,11.6,21,0.00,,---,0.00,VWS V13.01,2013-06-01 04:34:00,
2013-06-01 00:40:00,74.8,32.3,29.56,North,353,5.4,7.2,21,0.00,,---,0.00,VWS V13.01,2013-06-01 04:40:00,
2013-06-01 00:45:00,74.8,32.3,29.56,NW,318,13.1,17.4,21,0.00,,---,0.00,VWS V13.01,2013-06-01 04:45:00,
2013-06-01 00:51:00,74.5,32.0,29.56,WNW,295,8.1,10.7,21,0.00,,---,0.00,VWS V13.01,2013-06-01 04:51:00,
2013-06-01 00:57:00,74.3,31.9,29.56,NNW,339,4.0,5.4,21,0.00,,---,0.00,VWS V13.01,2013-06-01 04:57:00,
2013-06-01 01:02:00,73.9,32.7,29.56,North,0,4.7,6.3,22,0.00,,---,0.00,VWS V13.01,2013-06-01 05:02:00,
2013-06-01 01:07:00,73.8,32.6,29.56,NW,319,9.4,12.5,22,0.00,,---,0.00,VWS V13.01,2013-06-01 05:07:00,
2013-06-01 01:12:00,73.6,32.4,29.56,WNW,283,6.0,8.1,22,0.00,,---,0.00,VWS V13.01,2013-06-01 05:12:00,
2013-06-01 01:18:00,73.4,33.4,29.56,NNE,21,3.4,4.5,23,0.00,,---,0.00,VWS V13.01,2013-06-01 05:18:00,
2013-06-01 01:24:00,73.4,33.4,29.56,North,357,8.7,11.6,23,0.00,,---,0.00,VWS V13.01,2013-06-01 05:24:00,
2013-06-01 01:29:00,73.0,34.1,29.56,North,353,8.7,11.6,24,0.00,,---,0.00,VWS V13.01,2013-06-01 05:29:00,
2013-06-01 01:35:00,72.9,34.0,29.56,WNW,302,5.4,7.2,24,0.00,,---,0.00,VWS V13.01,2013-06-01 05:35:00,
2013-06-01 01:41:00,72.3,34.6,29.56,NW,326,6.0,8.1,25,0.00,,---,0.00,VWS V13.01,2013-06-01 05:41:00,
2013-06-01 01:47:00,72.1,35.4,29.56,NNW,331,5.4,7.2,26,0.00,,---,0.00,VWS V13.01,2013-06-01 05:47:00,
2013-06-01 01:54:00,72.3,35.5,29.56,NNW,346,3.4,4.5,26,0.00,,---,0.00,VWS V13.01,2013-06-01 05:54:00,
2013-06-01 02:00:00,72.0,35.2,29.56,NW,322,6.7,8.9,26,0.00,,---,0.00,VWS V13.01,2013-06-01 06:00:00,
2013-06-01 02:05:00,71.8,36.0,29.56,NNW,329,0.0,0.0,27,0.00,,---,0.00,VWS V13.01,2013-06-01 06:05:00,
2013-06-01 02:10:00,71.8,37.0,29.56,North,10,3.4,4.5,28,0.00,,---,0.00,VWS V13.01,2013-06-01 06:10:00,
2013-06-01 02:15:00,71.6,36.8,29.56,North,357,0.0,0.0,28,0.00,,---,0.00,VWS V13.01,2013-06-01 06:15:00,
2013-06-01 02:20:00,71.2,38.2,29.56,North,3,0.0,0.0,30,0.00,,---,0.00,VWS V13.01,2013-06-01 06:20:00,
2013-06-01 02:25:00,71.1,39.7,29.56,WNW,284,0.0,0.0,32,0.00,,---,0.00,VWS V13.01,2013-06-01 06:25:00,
2013-06-01 02:31:00,71.1,39.7,29.56,North,353,0.0,0.0,32,0.00,,---,0.00,VWS V13.01,2013-06-01 06:31:00,
2013-06-01 02:36:00,70.9,39.6,29.56,NNW,338,4.7,6.3,32,0.00,,---,0.00,VWS V13.01,2013-06-01 06:36:00,
2013-06-01 02:41:00,70.7,40.2,29.56,NW,323,4.7,6.3,33,0.00,,---,0.00,VWS V13.01,2013-06-01 06:41:00,
2013-06-01 02:47:00,71.1,39.7,29.56,NNW,341,0.0,0.0,32,0.00,,---,0.00,VWS V13.01,2013-06-01 06:47:00,
2013-06-01 02:52:00,71.1,39.7,29.56,NW,322,4.7,6.3,32,0.00,,---,0.00,VWS V13.01,2013-06-01 06:52:00,
2013-06-01 02:57:00,70.7,40.2,29.56,WNW,289,3.4,4.5,33,0.00,,---,0.00,VWS V13.01,2013-06-01 06:57:00,
2013-06-01 03:02:00,70.5,40.1,29.56,WNW,303,0.0,0.0,33,0.00,,---,0.00,VWS V13.01,2013-06-01 07:02:00,
2013-06-01 03:07:00,70.3,39.9,29.56,NNW,341,4.0,5.4,33,0.00,,---,0.00,VWS V13.01,2013-06-01 07:07:00,
2013-06-01 03:13:00,70.5,40.1,29.56,NNW,340,0.0,0.0,33,0.00,,---,0.00,VWS V13.01,2013-06-01 07:13:00,
2013-06-01 03:20:00,70.3,39.9,29.56,NW,326,0.0,0.0,33,0.00,,---,0.00,VWS V13.01,2013-06-01 07:20:00,
2013-06-01 03:25:00,70.0,40.3,29.56,NW,319,5.4,7.2,34,0.00,,---,0.00,VWS V13.01,2013-06-01 07:25:00,
2013-06-01 03:30:00,70.0,40.3,29.56,NNW,346,0.0,0.0,34,0.00,,---,0.00,VWS V13.01,2013-06-01 07:30:00,
2013-06-01 03:35:00,70.2,39.7,29.56,NNW,343,0.0,0.0,33,0.00,,---,0.00,VWS V13.01,2013-06-01 07:35:00,
2013-06-01 03:40:00,70.2,39.7,29.56,North,9,5.4,7.2,33,0.00,,---,0.00,VWS V13.01,2013-06-01 07:40:00,
2013-06-01 03:45:00,70.0,40.3,29.56,NW,318,4.0,5.4,34,0.00,,---,0.00,VWS V13.01,2013-06-01 07:45:00,
2013-06-01 03:51:00,69.6,40.8,29.56,WNW,300,0.0,0.0,35,0.00,,---,0.00,VWS V13.01,2013-06-01 07:51:00,
2013-06-01 03:56:00,69.3,41.9,29.56,NW,308,4.0,5.4,37,0.00,,---,0.00,VWS V13.01,2013-06-01 07:56:00,
2013-06-01 04:01:00,69.3,41.9,29.56,North,353,0.0,0.0,37,0.00,,---,0.00,VWS V13.01,2013-06-01 08:01:00,
2013-06-01 04:07:00,69.1,42.4,29.56,WNW,294,0.0,0.0,38,0.00,,---,0.00,VWS V13.01,2013-06-01 08:07:00,
2013-06-01 04:12:00,68.9,43.0,29.56,SW,232,0.0,0.0,39,0.00,,---,0.00,VWS V13.01,2013-06-01 08:12:00,
2013-06-01 04:18:00,69.1,42.4,29.56,WSW,238,3.4,4.5,38,0.00,,---,0.00,VWS V13.01,2013-06-01 08:18:00,
2013-06-01 04:24:00,68.9,42.3,29.56,West,275,0.0,0.0,38,0.00,,---,0.00,VWS V13.01,2013-06-01 08:24:00,
2013-06-01 04:30:00,68.7,42.8,29.56,WNW,283,0.0,0.0,39,0.00,,---,0.00,VWS V13.01,2013-06-01 08:30:00,
2013-06-01 04:35:00,68.5,42.6,29.56,West,271,0.0,0.0,39,0.00,,---,0.00,VWS V13.01,2013-06-01 08:35:00,
2013-06-01 04:41:00,68.9,43.0,29.56,WNW,302,0.0,0.0,39,0.00,,---,0.00,VWS V13.01,2013-06-01 08:41:00,
2013-06-01 04:47:00,69.1,42.4,29.56,NW,322,0.0,0.0,38,0.00,,---,0.00,VWS V13.01,2013-06-01 08:47:00,
2013-06-01 04:53:00,68.7,43.5,29.56,NW,322,0.0,0.0,40,0.00,,---,0.00,VWS V13.01,2013-06-01 08:53:00,
2013-06-01 04:59:00,68.5,43.9,29.56,NNW,343,0.0,0.0,41,0.00,,---,0.00,VWS V13.01,2013-06-01 08:59:00,
2013-06-01 05:04:00,68.7,44.1,29.56,NNW,338,0.0,0.0,41,0.00,,---,0.00,VWS V13.01,2013-06-01 09:04:00,
2013-06-01 05:09:00,68.4,44.4,29.56,NW,318,0.0,0.0,42,0.00,,---,0.00,VWS V13.01,2013-06-01 09:09:00,
2013-06-01 05:14:00,68.2,44.9,29.56,West,273,0.0,0.0,43,0.00,,---,0.00,VWS V13.01,2013-06-01 09:14:00,
2013-06-01 05:19:00,67.8,45.1,29.56,West,263,0.0,0.0,44,0.00,,---,0.00,VWS V13.01,2013-06-01 09:19:00,
2013-06-01 05:25:00,67.8,46.3,29.56,West,272,0.0,0.0,46,0.00,,---,0.00,VWS V13.01,2013-06-01 09:25:00,
2013-06-01 05:32:00,67.6,46.7,29.56,WNW,297,0.0,0.0,47,0.00,,---,0.00,VWS V13.01,2013-06-01 09:32:00,
2013-06-01 05:38:00,67.6,47.3,29.56,NW,309,0.0,0.0,48,0.00,,---,0.00,VWS V13.01,2013-06-01 09:38:00,
2013-06-01 05:43:00,67.8,47.4,29.56,NW,317,4.7,6.3,48,0.00,,---,0.00,VWS V13.01,2013-06-01 09:43:00,
2013-06-01 05:50:00,68.2,46.6,29.56,NNW,329,0.0,0.0,46,0.00,,---,0.00,VWS V13.01,2013-06-01 09:50:00,
2013-06-01 05:56:00,68.5,46.4,29.56,North,350,4.0,5.4,45,0.00,,---,0.00,VWS V13.01,2013-06-01 09:56:00,
2013-06-01 06:02:00,69.1,45.7,29.56,North,357,0.0,0.0,43,0.00,,---,0.00,VWS V13.01,2013-06-01 10:02:00,
2013-06-01 06:07:00,69.3,45.2,29.56,North,0,0.0,0.0,42,0.00,,---,0.00,VWS V13.01,2013-06-01 10:07:00,
2013-06-01 06:12:00,69.6,44.9,29.56,NW,315,0.0,0.0,41,0.00,,---,0.00,VWS V13.01,2013-06-01 10:12:00,
2013-06-01 06:18:00,69.6,44.2,29.59,NNW,332,0.0,0.0,40,0.00,,---,0.00,VWS V13.01,2013-06-01 10:18:00,
2013-06-01 06:23:00,69.6,44.9,29.59,North,6,3.4,4.5,41,0.00,,---,0.00,VWS V13.01,2013-06-01 10:23:00,
2013-06-01 06:29:00,69.8,44.4,29.59,North,350,0.0,0.0,40,0.00,,---,0.00,VWS V13.01,2013-06-01 10:29:00,
2013-06-01 06:34:00,69.8,44.4,29.59,North,11,4.0,5.4,40,0.00,,---,0.00,VWS V13.01,2013-06-01 10:34:00,
2013-06-01 06:40:00,70.0,43.9,29.59,NNW,343,5.4,7.2,39,0.00,,---,0.00,VWS V13.01,2013-06-01 10:40:00,
2013-06-01 06:45:00,70.3,43.5,29.59,NW,322,0.0,0.0,38,0.00,,---,0.00,VWS V13.01,2013-06-01 10:45:00,
2013-06-01 06:52:00,70.3,43.5,29.59,NNW,335,0.0,0.0,38,0.00,,---,0.00,VWS V13.01,2013-06-01 10:52:00,
2013-06-01 06:58:00,70.5,42.3,29.59,NW,319,4.7,6.3,36,0.00,,---,0.00,VWS V13.01,2013-06-01 10:58:00,
2013-06-01 07:03:00,71.1,42.8,29.59,NW,318,3.4,4.5,36,0.00,,---,0.00,VWS V13.01,2013-06-01 11:03:00,
2013-06-01 07:08:00,71.4,42.4,29.59,WNW,299,0.0,0.0,35,0.00,,---,0.00,VWS V13.01,2013-06-01 11:08:00,
2013-06-01 07:13:00,71.6,41.8,29.59,NW,319,4.0,5.4,34,0.00,,---,0.00,VWS V13.01,2013-06-01 11:13:00,
2013-06-01 07:19:00,72.3,40.8,29.59,North,357,4.7,6.3,32,0.00,,---,0.00,VWS V13.01,2013-06-01 11:19:00,
2013-06-01 07:24:00,72.9,41.3,29.59,NNW,344,4.0,5.4,32,0.00,,---,0.00,VWS V13.01,2013-06-01 11:24:00,
2013-06-01 07:29:00,72.9,41.3,29.59,NNW,339,6.0,8.1,32,0.00,,---,0.00,VWS V13.01,2013-06-01 11:29:00,
2013-06-01 07:36:00,72.3,41.6,29.59,WNW,301,0.0,0.0,33,0.00,,---,0.00,VWS V13.01,2013-06-01 11:36:00,
2013-06-01 07:41:00,72.3,41.6,29.59,North,350,5.4,7.2,33,0.00,,---,0.00,VWS V13.01,2013-06-01 11:41:00,
2013-06-01 07:46:00,73.8,41.3,29.62,NNE,23,6.0,8.1,31,0.00,,---,0.00,VWS V13.01,2013-06-01 11:46:00,
2013-06-01 07:51:00,74.1,39.0,29.62,NNE,12,5.4,7.2,28,0.00,,---,0.00,VWS V13.01,2013-06-01 11:51:00,
2013-06-01 07:56:00,74.5,41.0,29.62,NNW,331,0.0,0.0,30,0.00,,---,0.00,VWS V13.01,2013-06-01 11:56:00,
2013-06-01 08:02:00,74.1,39.9,29.59,WNW,282,8.7,11.6,29,0.00,,---,0.00,VWS V13.01,2013-06-01 12:02:00,
2013-06-01 08:07:00,73.6,40.3,29.59,NW,325,12.4,16.6,30,0.00,,---,0.00,VWS V13.01,2013-06-01 12:07:00,
2013-06-01 08:12:00,74.1,39.9,29.59,NNE,19,10.1,13.4,29,0.00,,---,0.00,VWS V13.01,2013-06-01 12:12:00,
2013-06-01 08:18:00,75.7,38.5,29.62,NNW,331,9.4,12.5,26,0.00,,---,0.00,VWS V13.01,2013-06-01 12:18:00,
2013-06-01 08:23:00,74.1,39.0,29.62,North,350,8.1,10.7,28,0.00,,---,0.00,VWS V13.01,2013-06-01 12:23:00,
2013-06-01 08:28:00,73.0,41.5,29.62,NNW,327,5.4,7.2,32,0.00,,---,0.00,VWS V13.01,2013-06-01 12:28:00,
2013-06-01 08:34:00,72.7,41.2,29.62,NNE,14,8.1,10.7,32,0.00,,---,0.00,VWS V13.01,2013-06-01 12:34:00,
2013-06-01 08:40:00,71.8,41.9,29.62,North,353,10.1,13.4,34,0.00,,---,0.00,VWS V13.01,2013-06-01 12:40:00,
2013-06-01 08:45:00,72.1,42.2,29.62,NNE,19,6.0,8.1,34,0.00,,---,0.00,VWS V13.01,2013-06-01 12:45:00,
2013-06-01 08:51:00,71.8,41.9,29.62,North,2,6.0,8.1,34,0.00,,---,0.00,VWS V13.01,2013-06-01 12:51:00,
2013-06-01 08:57:00,73.0,43.0,29.62,NW,318,5.4,7.2,34,0.00,,---,0.00,VWS V13.01,2013-06-01 12:57:00,
2013-06-01 09:02:00,75.6,41.1,29.59,WNW,296,8.1,10.7,29,0.00,,---,0.00,VWS V13.01,2013-06-01 13:02:00,
2013-06-01 09:07:00,75.6,39.3,29.59,NNW,328,4.7,6.3,27,0.00,,---,0.00,VWS V13.01,2013-06-01 13:07:00,
2013-06-01 09:12:00,74.1,41.6,29.59,NW,316,4.0,5.4,31,0.00,,---,0.00,VWS V13.01,2013-06-01 13:12:00,
2013-06-01 09:17:00,75.2,39.0,29.59,North,0,8.7,11.6,27,0.00,,---,0.00,VWS V13.01,2013-06-01 13:17:00,
2013-06-01 09:22:00,76.5,37.0,29.59,NW,318,8.7,11.6,24,0.00,,---,0.00,VWS V13.01,2013-06-01 13:22:00,
2013-06-01 09:28:00,77.2,36.5,29.59,WNW,294,5.4,7.2,23,0.00,,---,0.00,VWS V13.01,2013-06-01 13:28:00,
2013-06-01 09:33:00,76.5,37.0,29.59,North,357,5.4,7.2,24,0.00,,---,0.00,VWS V13.01,2013-06-01 13:33:00,
2013-06-01 09:38:00,77.4,35.6,29.59,North,353,8.1,10.7,22,0.00,,---,0.00,VWS V13.01,2013-06-01 13:38:00,
2013-06-01 09:43:00,77.4,36.7,29.59,North,357,8.7,11.6,23,0.00,,---,0.00,VWS V13.01,2013-06-01 13:43:00,
2013-06-01 09:48:00,77.7,35.9,29.59,NNE,30,8.1,10.7,22,0.00,,---,0.00,VWS V13.01,2013-06-01 13:48:00,
2013-06-01 09:54:00,77.5,35.7,29.59,NNE,33,8.7,11.6,22,0.00,,---,0.00,VWS V13.01,2013-06-01 13:54:00,
2013-06-01 09:59:00,77.0,36.4,29.59,NE,56,8.7,11.6,23,0.00,,---,0.00,VWS V13.01,2013-06-01 13:59:00,
2013-06-01 10:05:00,76.3,36.9,29.59,North,6,9.4,12.5,24,0.00,,---,0.00,VWS V13.01,2013-06-01 14:05:00,
2013-06-01 10:10:00,77.4,37.8,29.59,NNW,329,12.4,16.6,24,0.00,,---,0.00,VWS V13.01,2013-06-01 14:10:00,
2013-06-01 10:15:00,77.4,36.7,29.59,NW,326,14.4,19.2,23,0.00,,---,0.00,VWS V13.01,2013-06-01 14:15:00,
2013-06-01 10:20:00,78.6,36.6,29.59,North,0,4.7,6.3,22,0.00,,---,0.00,VWS V13.01,2013-06-01 14:20:00,
2013-06-01 10:25:00,80.2,35.6,29.59,NNW,337,5.4,7.2,20,0.00,,---,0.00,VWS V13.01,2013-06-01 14:25:00,
2013-06-01 10:31:00,79.2,34.7,29.59,NNE,18,9.4,12.5,20,0.00,,---,0.00,VWS V13.01,2013-06-01 14:31:00,
2013-06-01 10:37:00,77.7,35.9,29.59,North,357,4.0,5.4,22,0.00,,---,0.00,VWS V13.01,2013-06-01 14:37:00,
2013-06-01 10:43:00,77.9,36.0,29.59,West,279,5.4,7.2,22,0.00,,---,0.00,VWS V13.01,2013-06-01 14:43:00,
2013-06-01 10:48:00,78.4,36.5,29.59,NW,316,4.0,5.4,22,0.00,,---,0.00,VWS V13.01,2013-06-01 14:48:00,
2013-06-01 10:53:00,79.0,35.8,29.59,NW,306,6.0,8.1,21,0.00,,---,0.00,VWS V13.01,2013-06-01 14:53:00,
2013-06-01 10:58:00,78.3,35.2,29.59,NW,325,9.4,12.5,21,0.00,,---,0.00,VWS V13.01,2013-06-01 14:58:00,
2013-06-01 11:03:00,80.6,35.9,29.59,NNW,340,11.4,15.2,20,0.00,,---,0.00,VWS V13.01,2013-06-01 15:03:00,
2013-06-01 11:08:00,80.4,35.7,29.59,NNW,346,7.4,9.8,20,0.00,,---,0.00,VWS V13.01,2013-06-01 15:08:00,
2013-06-01 11:14:00,79.3,34.8,29.59,North,357,4.0,5.4,20,0.00,,---,0.00,VWS V13.01,2013-06-01 15:14:00,
2013-06-01 11:19:00,77.5,34.6,29.59,NNW,343,4.7,6.3,21,0.00,,---,0.00,VWS V13.01,2013-06-01 15:19:00,
2013-06-01 11:24:00,77.5,35.7,29.59,SSW,199,0.0,0.0,22,0.00,,---,0.00,VWS V13.01,2013-06-01 15:24:00,
2013-06-01 11:30:00,78.3,35.2,29.59,WSW,254,8.1,10.7,21,0.00,,---,0.00,VWS V13.01,2013-06-01 15:30:00,
2013-06-01 11:35:00,80.1,36.7,29.59,North,0,3.4,4.5,21,0.00,,---,0.00,VWS V13.01,2013-06-01 15:35:00,
2013-06-01 11:40:00,84.0,37.4,29.59,NW,313,5.4,7.2,19,0.00,,---,0.00,VWS V13.01,2013-06-01 15:40:00,
2013-06-01 11:45:00,84.0,33.0,29.59,NNW,343,4.7,6.3,16,0.00,,---,0.00,VWS V13.01,2013-06-01 15:45:00,
2013-06-01 11:51:00,85.8,34.5,29.59,South,175,4.0,5.4,16,0.00,,---,0.00,VWS V13.01,2013-06-01 15:51:00,
2013-06-01 11:58:00,81.9,32.8,29.59,NNW,337,6.0,8.1,17,0.00,,---,0.00,VWS V13.01,2013-06-01 15:58:00,
2013-06-01 12:04:00,86.9,30.2,29.56,West,271,4.0,5.4,13,0.00,,---,0.00,VWS V13.01,2013-06-01 16:04:00,
2013-06-01 12:09:00,84.7,28.5,29.56,NW,314,4.7,6.3,13,0.00,,---,0.00,VWS V13.01,2013-06-01 16:09:00,
2013-06-01 12:14:00,88.2,31.2,29.56,WNW,291,4.7,6.3,13,0.00,,---,0.00,VWS V13.01,2013-06-01 16:14:00,
2013-06-01 12:20:00,85.6,29.2,29.56,North,353,3.4,4.5,13,0.00,,---,0.00,VWS V13.01,2013-06-01 16:20:00,
2013-06-01 12:25:00,86.4,29.8,29.56,ESE,120,3.4,4.5,13,0.00,,---,0.00,VWS V13.01,2013-06-01 16:25:00,
2013-06-01 12:32:00,87.8,30.9,29.56,SW,220,6.0,8.1,13,0.00,,---,0.00,VWS V13.01,2013-06-01 16:32:00,
2013-06-01 12:37:00,87.3,30.5,29.56,North,353,6.0,8.1,13,0.00,,---,0.00,VWS V13.01,2013-06-01 16:37:00,
2013-06-01 12:43:00,85.6,29.2,29.56,West,259,7.4,9.8,13,0.00,,---,0.00,VWS V13.01,2013-06-01 16:43:00,
2013-06-01 12:50:00,87.6,30.8,29.56,WNW,295,0.0,0.0,13,0.00,,---,0.00,VWS V13.01,2013-06-01 16:50:00,
2013-06-01 12:55:00,85.8,29.4,29.56,WNW,300,4.7,6.3,13,0.00,,---,0.00,VWS V13.01,2013-06-01 16:55:00,
2013-06-01 13:01:00,86.9,30.2,29.53,NNW,346,6.0,8.1,13,0.00,,---,0.00,VWS V13.01,2013-06-01 17:01:00,
2013-06-01 13:06:00,89.2,32.0,29.53,SW,233,0.0,0.0,13,0.00,,---,0.00,VWS V13.01,2013-06-01 17:06:00,
2013-06-01 13:11:00,85.5,29.1,29.53,NW,306,8.7,11.6,13,0.00,,---,0.00,VWS V13.01,2013-06-01 17:11:00,
2013-06-01 13:17:00,82.0,28.2,29.53,NW,321,12.1,16.1,14,0.00,,---,0.00,VWS V13.01,2013-06-01 17:17:00,
2013-06-01 13:23:00,82.2,33.1,29.53,NW,307,8.1,10.7,17,0.00,,---,0.00,VWS V13.01,2013-06-01 17:23:00,
2013-06-01 13:28:00,82.6,31.9,29.53,NW,318,0.0,0.0,16,0.00,,---,0.00,VWS V13.01,2013-06-01 17:28:00,
2013-06-01 13:33:00,83.1,32.3,29.53,NNW,342,10.7,14.3,16,0.00,,---,0.00,VWS V13.01,2013-06-01 17:33:00,
2013-06-01 13:39:00,84.0,29.8,29.53,NNW,329,5.4,7.2,14,0.00,,---,0.00,VWS V13.01,2013-06-01 17:39:00,
2013-06-01 13:44:00,85.1,28.8,29.53,NNE,24,5.4,7.2,13,0.00,,---,0.00,VWS V13.01,2013-06-01 17:44:00,
2013-06-01 13:49:00,85.5,29.1,29.53,NW,305,4.7,6.3,13,0.00,,---,0.00,VWS V13.01,2013-06-01 17:49:00,
2013-06-01 13:56:00,86.9,30.2,29.53,NNW,336,5.4,7.2,13,0.00,,---,0.00,VWS V13.01,2013-06-01 17:56:00,
2013-06-01 14:01:00,87.6,30.8,29.53,NNW,346,8.1,10.7,13,0.00,,---,0.00,VWS V13.01,2013-06-01 18:01:00,
2013-06-01 14:06:00,86.9,30.2,29.53,NNW,341,9.4,12.5,13,0.00,,---,0.00,VWS V13.01,2013-06-01 18:06:00,
2013-06-01 14:12:00,88.5,31.5,29.53,NW,315,4.0,5.4,13,0.00,,---,0.00,VWS V13.01,2013-06-01 18:12:00,
2013-06-01 14:18:00,89.6,30.3,29.50,NNW,335,0.0,0.0,12,0.00,,---,0.00,VWS V13.01,2013-06-01 18:18:00,
2013-06-01 14:24:00,88.2,31.2,29.50,NNE,30,6.0,8.1,13,0.00,,---,0.00,VWS V13.01,2013-06-01 18:24:00,
2013-06-01 14:29:00,88.9,31.7,29.50,WNW,287,8.1,10.7,13,0.00,,---,0.00,VWS V13.01,2013-06-01 18:29:00,
2013-06-01 14:35:00,89.4,32.2,29.50,North,4,4.0,5.4,13,0.00,,---,0.00,VWS V13.01,2013-06-01 18:35:00,
2013-06-01 14:41:00,91.2,31.6,29.50,West,275,7.4,9.8,12,0.00,,---,0.00,VWS V13.01,2013-06-01 18:41:00,
2013-06-01 14:48:00,90.3,30.9,29.50,West,267,4.7,6.3,12,0.00,,---,0.00,VWS V13.01,2013-06-01 18:48:00,
2013-06-01 14:53:00,87.4,30.6,29.50,NNW,338,8.7,11.6,13,0.00,,---,0.00,VWS V13.01,2013-06-01 18:53:00,
2013-06-01 14:59:00,86.5,29.9,29.50,North,3,5.4,7.2,13,0.00,,---,0.00,VWS V13.01,2013-06-01 18:59:00,
2013-06-01 15:04:00,86.2,29.6,29.50,NW,313,12.1,16.1,13,0.00,,---,0.00,VWS V13.01,2013-06-01 19:04:00,
2013-06-01 15:10:00,86.2,29.6,29.50,North,353,12.1,16.1,13,0.00,,---,0.00,VWS V13.01,2013-06-01 19:10:00,
2013-06-01 15:15:00,89.2,32.0,29.50,WNW,292,3.4,4.5,13,0.00,,---,0.00,VWS V13.01,2013-06-01 19:15:00,
2013-06-01 15:20:00,90.0,30.6,29.50,NNW,344,8.7,11.6,12,0.00,,---,0.00,VWS V13.01,2013-06-01 19:20:00,
2013-06-01 15:25:00,87.6,30.8,29.50,North,357,12.1,16.1,13,0.00,,---,0.00,VWS V13.01,2013-06-01 19:25:00,
2013-06-01 15:30:00,88.3,31.3,29.50,NW,314,16.4,21.9,13,0.00,,---,0.00,VWS V13.01,2013-06-01 19:30:00,
2013-06-01 15:36:00,90.0,30.6,29.50,North,353,4.7,6.3,12,0.00,,---,0.00,VWS V13.01,2013-06-01 19:36:00,
2013-06-01 15:41:00,88.9,31.7,29.50,NW,315,8.1,10.7,13,0.00,,---,0.00,VWS V13.01,2013-06-01 19:41:00,
2013-06-01 15:47:00,87.6,30.8,29.50,NW,315,10.7,14.3,13,0.00,,---,0.00,VWS V13.01,2013-06-01 19:47:00,
2013-06-01 15:52:00,88.2,31.2,29.50,North,353,4.0,5.4,13,0.00,,---,0.00,VWS V13.01,2013-06-01 19:52:00,
2013-06-01 15:58:00,88.5,31.5,29.50,NNW,344,8.1,10.7,13,0.00,,---,0.00,VWS V13.01,2013-06-01 19:58:00,
2013-06-01 16:04:00,88.5,31.5,29.50,North,353,16.4,21.9,13,0.00,,---,0.00,VWS V13.01,2013-06-01 20:04:00,
2013-06-01 16:10:00,90.1,30.7,29.50,WNW,285,8.1,10.7,12,0.00,,---,0.00,VWS V13.01,2013-06-01 20:10:00,
2013-06-01 16:15:00,90.0,30.6,29.50,North,357,9.4,12.5,12,0.00,,---,0.00,VWS V13.01,2013-06-01 20:15:00,
2013-06-01 16:20:00,89.4,32.2,29.50,North,0,8.1,10.7,13,0.00,,---,0.00,VWS V13.01,2013-06-01 20:20:00,
2013-06-01 16:25:00,91.8,32.0,29.50,WNW,295,7.4,9.8,12,0.00,,---,0.00,VWS V13.01,2013-06-01 20:25:00,
2013-06-01 16:30:00,91.0,31.4,29.47,WNW,296,8.1,10.7,12,0.00,,---,0.00,VWS V13.01,2013-06-01 20:30:00,
2013-06-01 16:36:00,88.5,31.5,29.47,NW,312,8.7,11.6,13,0.00,,---,0.00,VWS V13.01,2013-06-01 20:36:00,
2013-06-01 16:41:00,90.0,30.6,29.47,WNW,290,7.4,9.8,12,0.00,,---,0.00,VWS V13.01,2013-06-01 20:41:00,
2013-06-01 16:46:00,88.3,31.3,29.47,NW,307,7.4,9.8,13,0.00,,---,0.00,VWS V13.01,2013-06-01 20:46:00,
2013-06-01 16:52:00,89.4,32.2,29.47,North,357,4.0,5.4,13,0.00,,---,0.00,VWS V13.01,2013-06-01 20:52:00,
2013-06-01 16:57:00,88.3,31.3,29.47,NNW,341,5.4,7.2,13,0.00,,---,0.00,VWS V13.01,2013-06-01 20:57:00,
2013-06-01 17:02:00,86.9,30.2,29.47,NNW,337,9.4,12.5,13,0.00,,---,0.00,VWS V13.01,2013-06-01 21:02:00,
2013-06-01 17:08:00,86.4,29.8,29.47,NE,42,8.7,11.6,13,0.00,,---,0.00,VWS V13.01,2013-06-01 21:08:00,
2013-06-01 17:13:00,88.7,31.6,29.47,NNW,348,4.7,6.3,13,0.00,,---,0.00,VWS V13.01,2013-06-01 21:13:00,
2013-06-01 17:18:00,89.8,30.5,29.47,NE,56,8.7,11.6,12,0.00,,---,0.00,VWS V13.01,2013-06-01 21:18:00,
2013-06-01 17:24:00,88.2,31.2,29.47,WSW,253,8.1,10.7,13,0.00,,---,0.00,VWS V13.01,2013-06-01 21:24:00,
2013-06-01 17:30:00,88.9,31.7,29.47,NW,317,4.7,6.3,13,0.00,,---,0.00,VWS V13.01,2013-06-01 21:30:00,
2013-06-01 17:36:00,88.9,31.7,29.47,WNW,288,5.4,7.2,13,0.00,,---,0.00,VWS V13.01,2013-06-01 21:36:00,
2013-06-01 17:41:00,88.9,31.7,29.47,North,357,12.4,16.6,13,0.00,,---,0.00,VWS V13.01,2013-06-01 21:41:00,
2013-06-01 17:46:00,86.9,30.2,29.44,West,266,12.4,16.6,13,0.00,,---,0.00,VWS V13.01,2013-06-01 21:46:00,
2013-06-01 17:51:00,86.9,30.2,29.44,WNW,293,15.8,21.0,13,0.00,,---,0.00,VWS V13.01,2013-06-01 21:51:00,
2013-06-01 17:56:00,86.4,29.8,29.44,WNW,303,9.4,12.5,13,0.00,,---,0.00,VWS V13.01,2013-06-01 21:56:00,
2013-06-01 18:01:00,87.1,30.3,29.44,North,357,9.4,12.5,13,0.00,,---,0.00,VWS V13.01,2013-06-01 22:01:00,
2013-06-01 18:07:00,87.1,30.3,29.44,NW,308,7.4,9.8,13,0.00,,---,0.00,VWS V13.01,2013-06-01 22:07:00,
2013-06-01 18:12:00,87.3,30.5,29.44,North,353,5.4,7.2,13,0.00,,---,0.00,VWS V13.01,2013-06-01 22:12:00,
2013-06-01 18:18:00,85.8,29.4,29.44,NW,326,4.7,6.3,13,0.00,,---,0.00,VWS V13.01,2013-06-01 22:18:00,
2013-06-01 18:23:00,86.7,30.0,29.44,NNE,27,4.7,6.3,13,0.00,,---,0.00,VWS V13.01,2013-06-01 22:23:00,
2013-06-01 18:28:00,87.1,30.3,29.44,ENE,63,9.4,12.5,13,0.00,,---,0.00,VWS V13.01,2013-06-01 22:28:00,
2013-06-01 18:34:00,86.7,30.0,29.44,WSW,254,5.4,7.2,13,0.00,,---,0.00,VWS V13.01,2013-06-01 22:34:00,
2013-06-01 18:39:00,85.1,28.8,29.44,NW,315,8.7,11.6,13,0.00,,---,0.00,VWS V13.01,2013-06-01 22:39:00,
2013-06-01 18:45:00,84.9,28.6,29.44,WNW,286,4.7,6.3,13,0.00,,---,0.00,VWS V13.01,2013-06-01 22:45:00,
2013-06-01 18:50:00,84.2,28.1,29.44,NW,311,4.7,6.3,13,0.00,,---,0.00,VWS V13.01,2013-06-01 22:50:00,
2013-06-01 18:55:00,84.6,28.4,29.44,North,4,4.7,6.3,13,0.00,,---,0.00,VWS V13.01,2013-06-01 22:55:00,
2013-06-01 19:01:00,84.4,28.2,29.44,NNW,332,12.1,16.1,13,0.00,,---,0.00,VWS V13.01,2013-06-01 23:01:00,
2013-06-01 19:06:00,84.0,29.8,29.44,SSW,200,8.1,10.7,14,0.00,,---,0.00,VWS V13.01,2013-06-01 23:06:00,
2013-06-01 19:12:00,82.8,28.8,29.44,NW,317,4.0,5.4,14,0.00,,---,0.00,VWS V13.01,2013-06-01 23:12:00,
2013-06-01 19:17:00,82.2,28.3,29.44,NNW,343,11.4,15.2,14,0.00,,---,0.00,VWS V13.01,2013-06-01 23:17:00,
2013-06-01 19:23:00,82.0,28.2,29.44,North,353,5.4,7.2,14,0.00,,---,0.00,VWS V13.01,2013-06-01 23:23:00,
2013-06-01 19:28:00,81.7,27.9,29.44,NNW,329,4.7,6.3,14,0.00,,---,0.00,VWS V13.01,2013-06-01 23:28:00,
2013-06-01 19:33:00,81.3,32.4,29.44,NNW,341,4.0,5.4,17,0.00,,---,0.00,VWS V13.01,2013-06-01 23:33:00,
2013-06-01 19:39:00,80.8,32.0,29.44,NNW,329,7.4,9.8,17,0.00,,---,0.00,VWS V13.01,2013-06-01 23:39:00,
2013-06-01 19:45:00,80.1,31.4,29.44,NNW,343,3.4,4.5,17,0.00,,---,0.00,VWS V13.01,2013-06-01 23:45:00,
2013-06-01 19:50:00,79.9,31.2,29.44,NW,321,4.7,6.3,17,0.00,,---,0.00,VWS V13.01,2013-06-01 23:50:00,
2013-06-01 19:55:00,79.5,30.9,29.44,WNW,293,6.0,8.1,17,0.00,,---,0.00,VWS V13.01,2013-06-01 23:55:00,
2013-06-01 20:01:00,79.5,35.0,29.44,NNW,332,0.0,0.0,20,0.00,,---,0.00,VWS V13.01,2013-06-02 00:01:00,
2013-06-01 20:07:00,79.3,34.8,29.44,WSW,243,0.0,0.0,20,0.00,,---,0.00,VWS V13.01,2013-06-02 00:07:00,
2013-06-01 20:13:00,79.3,34.8,29.44,NW,315,4.7,6.3,20,0.00,,---,0.00,VWS V13.01,2013-06-02 00:13:00,
2013-06-01 20:19:00,79.5,35.0,29.44,NNW,342,4.7,6.3,20,0.00,,---,0.00,VWS V13.01,2013-06-02 00:19:00,
2013-06-01 20:24:00,78.6,34.2,29.44,NNW,337,5.4,7.2,20,0.00,,---,0.00,VWS V13.01,2013-06-02 00:24:00,
2013-06-01 20:29:00,77.2,35.4,29.44,NNW,327,0.0,0.0,22,0.00,,---,0.00,VWS V13.01,2013-06-02 00:29:00,
2013-06-01 20:34:00,74.7,47.4,29.44,NNW,345,12.1,16.1,38,0.00,,---,0.00,VWS V13.01,2013-06-02 00:34:00,
2013-06-01 20:40:00,69.8,58.4,29.44,NW,315,23.2,30.9,67,0.08,,---,0.08,VWS V13.01,2013-06-02 00:40:00,
2013-06-01 20:45:00,69.1,63.0,29.47,NNW,346,5.4,7.2,81,0.08,,---,0.08,VWS V13.01,2013-06-02 00:45:00,
2013-06-01 20:51:00,68.7,64.0,29.47,NE,35,4.0,5.4,85,0.08,,---,0.08,VWS V13.01,2013-06-02 00:51:00,
2013-06-01 20:57:00,68.7,64.7,29.47,WNW,284,5.4,7.2,87,0.08,,---,0.08,VWS V13.01,2013-06-02 00:57:00,
2013-06-01 21:03:00,68.5,65.2,29.44,NNW,340,0.0,0.0,89,0.08,,---,0.08,VWS V13.01,2013-06-02 01:03:00,
2013-06-01 21:09:00,68.5,65.5,29.44,NNW,342,4.0,5.4,90,0.08,,---,0.08,VWS V13.01,2013-06-02 01:09:00,
2013-06-01 21:14:00,68.5,65.8,29.44,WNW,285,4.0,5.4,91,0.08,,---,0.08,VWS V13.01,2013-06-02 01:14:00,
2013-06-01 21:19:00,68.7,66.0,29.44,WNW,284,0.0,0.0,91,0.08,,---,0.08,VWS V13.01,2013-06-02 01:19:00,
2013-06-01 21:24:00,68.9,66.5,29.44,WNW,294,0.0,0.0,92,0.08,,---,0.08,VWS V13.01,2013-06-02 01:24:00,
2013-06-01 21:29:00,68.7,66.3,29.44,West,270,0.0,0.0,92,0.08,,---,0.08,VWS V13.01,2013-06-02 01:29:00,
2013-06-01 21:36:00,68.9,66.5,29.44,NNW,343,0.0,0.0,92,0.08,,---,0.08,VWS V13.01,2013-06-02 01:36:00,
2013-06-01 21:41:00,69.1,67.0,29.44,North,3,0.0,0.0,93,0.00,,---,0.08,VWS V13.01,2013-06-02 01:41:00,
2013-06-01 21:48:00,69.3,67.2,29.47,North,353,0.0,0.0,93,0.08,,---,0.16,VWS V13.01,2013-06-02 01:48:00,
2013-06-01 21:53:00,69.4,67.6,29.47,WNW,302,8.1,10.7,94,0.08,,---,0.16,VWS V13.01,2013-06-02 01:53:00,
2013-06-01 21:59:00,69.4,67.6,29.47,WNW,289,0.0,0.0,94,0.08,,---,0.16,VWS V13.01,2013-06-02 01:59:00,
2013-06-01 22:04:00,69.6,67.8,29.47,WNW,286,4.0,5.4,94,0.08,,---,0.16,VWS V13.01,2013-06-02 02:04:00,
2013-06-01 22:09:00,69.8,68.0,29.47,North,353,4.0,5.4,94,0.08,,---,0.16,VWS V13.01,2013-06-02 02:09:00,
2013-06-01 22:15:00,70.0,68.5,29.47,WNW,294,0.0,0.0,95,0.08,,---,0.16,VWS V13.01,2013-06-02 02:15:00,
2013-06-01 22:20:00,70.0,68.5,29.47,NNW,345,4.0,5.4,95,0.08,,---,0.16,VWS V13.01,2013-06-02 02:20:00,
2013-06-01 22:25:00,70.2,68.7,29.47,NW,311,4.0,5.4,95,0.08,,---,0.16,VWS V13.01,2013-06-02 02:25:00,
2013-06-01 22:31:00,70.2,69.0,29.44,NNW,342,0.0,0.0,96,0.08,,---,0.16,VWS V13.01,2013-06-02 02:31:00,
2013-06-01 22:37:00,70.3,69.2,29.44,NW,318,0.0,0.0,96,0.08,,---,0.16,VWS V13.01,2013-06-02 02:37:00,
2013-06-01 22:42:00,70.3,69.2,29.44,NNW,332,4.0,5.4,96,0.08,,---,0.00,VWS V13.01,2013-06-02 02:42:00,
2013-06-01 22:47:00,70.5,69.6,29.47,North,353,3.4,4.5,97,0.00,,---,0.16,VWS V13.01,2013-06-02 02:47:00,
2013-06-01 22:53:00,70.9,70.0,29.47,West,279,6.0,8.1,97,0.00,,---,0.16,VWS V13.01,2013-06-02 02:53:00,
2013-06-01 22:59:00,70.9,70.0,29.47,NNW,342,5.4,7.2,97,0.00,,---,0.16,VWS V13.01,2013-06-02 02:59:00,
2013-06-01 23:04:00,70.9,70.3,29.47,West,271,6.0,8.1,98,0.00,,---,0.16,VWS V13.01,2013-06-02 03:04:00,
2013-06-01 23:10:00,70.9,70.3,29.47,NNW,328,4.0,5.4,98,0.00,,---,0.16,VWS V13.01,2013-06-02 03:10:00,
2013-06-01 23:15:00,71.2,70.7,29.47,NNW,339,4.0,5.4,98,0.00,,---,0.16,VWS V13.01,2013-06-02 03:15:00,
2013-06-01 23:22:00,71.2,70.7,29.47,NW,319,5.4,7.2,98,0.00,,---,0.16,VWS V13.01,2013-06-02 03:22:00,
2013-06-01 23:27:00,71.4,70.8,29.47,North,357,3.4,4.5,98,0.00,,---,0.16,VWS V13.01,2013-06-02 03:27:00,
2013-06-01 23:32:00,71.6,71.0,29.47,North,5,4.7,6.3,98,0.00,,---,0.16,VWS V13.01,2013-06-02 03:32:00,
2013-06-01 23:38:00,71.6,71.0,29.47,WNW,297,5.4,7.2,98,0.00,,---,0.16,VWS V13.01,2013-06-02 03:38:00,
2013-06-01 23:43:00,71.8,71.2,29.47,North,6,8.1,10.7,98,0.00,,---,0.16,VWS V13.01,2013-06-02 03:43:00,
2013-06-01 23:48:00,71.8,70.9,29.47,North,357,4.0,5.4,97,0.00,,---,0.16,VWS V13.01,2013-06-02 03:48:00,
2013-06-01 23:53:00,71.8,70.9,29.47,North,2,4.7,6.3,97,0.00,,---,0.16,VWS V13.01,2013-06-02 03:53:00,
2013-06-01 23:59:00,72.0,70.8,29.47,West,272,6.0,8.1,96,0.00,,---,0.16,VWS V13.01,2013-06-02 03:59:00,